Time;durP1;ratioP1;P1;durP2;ratioP2;P2;SDS_P1;SDS_P2;PMS_P1;PMS_P2;Temp;Humidity;BMP_temperature;BMP_pressure;BME280_temperature;BME280_humidity;BME280_pressure;Samples;Min_cycle;Max_cycle;Signal;HPM_P1;HPM_P2
2022/05/14 05:04:47;;;;;;;7.50;3.55;;;11.50;99.90;;;;;;6167136;23;20009;-78
2022/05/14 05:07:13;;;;;;;8.50;3.55;;;11.60;99.90;;;;;;6166787;23;19997;-78
2022/05/14 05:09:43;;;;;;;10.88;3.40;;;11.70;99.90;;;;;;6166973;23;20004;-80
2022/05/14 05:12:09;;;;;;;4.78;3.42;;;11.80;99.90;;;;;;6167097;23;20005;-80
2022/05/14 05:14:37;;;;;;;7.50;3.63;;;11.90;99.90;;;;;;6167354;23;20021;-79
2022/05/14 05:17:03;;;;;;;6.40;3.15;;;12.00;99.90;;;;;;6168032;23;20016;-79
2022/05/14 05:19:30;;;;;;;5.13;3.30;;;12.10;99.90;;;;;;6137194;23;20029;-78
2022/05/14 05:21:57;;;;;;;6.63;3.45;;;12.10;99.90;;;;;;6163911;23;20001;-78
2022/05/14 05:24:23;;;;;;;6.78;3.47;;;12.20;99.90;;;;;;6137665;23;20021;-79
2022/05/14 05:26:48;;;;;;;6.68;3.25;;;12.30;99.90;;;;;;6163855;23;20008;-77
2022/05/14 05:29:14;;;;;;;10.60;4.22;;;12.30;99.90;;;;;;6113319;23;20005;-79
2022/05/14 05:31:40;;;;;;;8.68;3.83;;;12.40;99.90;;;;;;6135946;23;20084;-79
2022/05/14 05:34:06;;;;;;;10.88;4.20;;;12.40;99.90;;;;;;6163858;23;20175;-79
2022/05/14 05:36:32;;;;;;;6.88;3.95;;;12.40;99.90;;;;;;6163126;23;20116;-78
2022/05/14 05:38:58;;;;;;;8.30;3.92;;;12.60;99.90;;;;;;6137801;23;20006;-78
2022/05/14 05:41:24;;;;;;;8.18;3.70;;;12.60;99.90;;;;;;6162829;23;20016;-79
2022/05/14 05:43:50;;;;;;;6.75;3.85;;;12.60;99.90;;;;;;6163392;23;20009;-78
2022/05/14 05:46:16;;;;;;;6.82;3.85;;;12.70;99.90;;;;;;6177765;23;20016;-78
2022/05/14 05:48:43;;;;;;;6.50;3.65;;;12.80;99.90;;;;;;6192619;23;20309;-79
2022/05/14 05:51:09;;;;;;;6.43;3.75;;;12.90;99.90;;;;;;6170059;23;20068;-79
2022/05/14 05:59:27;;;;;;;9.63;5.00;;;13.10;99.90;;;;;;6101975;23;20010;-78
2022/05/14 06:01:53;;;;;;;9.80;4.20;;;13.20;99.90;;;;;;6101280;23;20022;-78
2022/05/14 06:04:23;;;;;;;8.25;3.65;;;13.30;99.90;;;;;;6078225;23;20006;-78
2022/05/14 06:06:48;;;;;;;4.88;3.50;;;13.30;99.90;;;;;;6078653;23;20200;-78
2022/05/14 06:09:18;;;;;;;7.20;3.50;;;13.50;99.90;;;;;;6102264;23;20140;-77
2022/05/14 06:11:44;;;;;;;11.73;3.95;;;13.60;99.90;;;;;;6101810;23;20074;-80
2022/05/14 06:14:11;;;;;;;8.38;3.70;;;13.70;99.90;;;;;;6102450;23;20030;-80
2022/05/14 06:16:37;;;;;;;10.55;3.90;;;13.80;99.90;;;;;;6076789;23;20033;-81
2022/05/14 06:19:04;;;;;;;8.07;3.60;;;13.90;99.90;;;;;;6102723;23;20216;-80
2022/05/14 06:21:29;;;;;;;8.70;3.83;;;14.00;99.90;;;;;;6079510;23;20006;-80
2022/05/14 06:23:55;;;;;;;5.47;3.50;;;14.20;99.90;;;;;;6079720;23;20296;-78
2022/05/14 06:26:22;;;;;;;9.23;3.90;;;14.40;99.90;;;;;;6104084;23;20006;-78
2022/05/14 06:28:47;;;;;;;7.28;3.75;;;14.50;99.90;;;;;;6103382;23;20010;-79
2022/05/14 06:31:16;;;;;;;7.35;3.97;;;14.60;99.90;;;;;;6161531;23;20339;-78
2022/05/14 06:33:45;;;;;;;11.05;3.85;;;14.70;99.80;;;;;;6164907;23;20012;-78
2022/05/14 06:36:12;;;;;;;8.10;3.55;;;14.80;99.50;;;;;;6139429;23;20012;-78
2022/05/14 06:38:38;;;;;;;6.80;3.65;;;14.90;99.30;;;;;;6138273;23;20001;-78
2022/05/14 06:41:10;;;;;;;5.13;2.88;;;15.00;98.80;;;;;;6139034;23;20275;-78
2022/05/14 06:43:36;;;;;;;9.23;3.40;;;15.10;98.70;;;;;;6164700;23;20001;-80
2022/05/14 06:46:03;;;;;;;7.60;3.47;;;15.20;98.40;;;;;;6164423;23;20014;-79
2022/05/14 06:48:28;;;;;;;8.57;3.72;;;15.40;97.90;;;;;;6164301;23;20161;-78
2022/05/14 06:50:56;;;;;;;6.55;3.10;;;15.60;97.50;;;;;;6164719;23;20009;-80
2022/05/14 06:53:23;;;;;;;5.00;2.80;;;15.70;97.10;;;;;;6164487;23;20020;-78
2022/05/14 06:55:54;;;;;;;7.57;2.97;;;15.90;96.80;;;;;;6164760;23;20187;-78
2022/05/14 06:58:25;;;;;;;8.52;2.97;;;16.10;96.30;;;;;;6164819;23;20006;-78
2022/05/14 07:00:51;;;;;;;7.85;2.80;;;16.30;95.60;;;;;;6138028;23;20024;-78
2022/05/14 07:08:46;;;;;;;7.78;3.20;;;16.60;95.00;;;;;;6164716;23;20017;-78
2022/05/14 07:11:12;;;;;;;7.57;2.95;;;16.80;94.70;;;;;;6139440;23;19994;-78
2022/05/14 07:13:39;;;;;;;5.38;2.70;;;17.00;94.40;;;;;;6138511;23;20005;-78
2022/05/14 07:16:05;;;;;;;8.75;3.13;;;17.10;93.20;;;;;;6163961;23;20013;-78
2022/05/14 07:18:32;;;;;;;6.53;3.08;;;17.10;93.00;;;;;;6164463;23;20002;-78
2022/05/14 07:20:59;;;;;;;6.10;2.70;;;17.20;92.90;;;;;;6165014;23;20012;-78
2022/05/14 07:23:25;;;;;;;6.78;2.72;;;17.30;92.80;;;;;;6164661;23;20244;-79
2022/05/14 07:25:50;;;;;;;5.90;2.40;;;17.40;92.50;;;;;;6163869;23;19993;-77
2022/05/14 07:28:16;;;;;;;6.72;2.72;;;17.60;92.20;;;;;;6164500;23;20008;-78
2022/05/14 07:30:42;;;;;;;5.28;2.28;;;17.70;91.70;;;;;;6163007;23;20052;-77
2022/05/14 07:33:07;;;;;;;5.78;2.28;;;17.80;92.20;;;;;;6164645;23;20172;-78
2022/05/14 07:35:34;;;;;;;6.75;2.58;;;18.10;91.40;;;;;;6138342;23;20020;-78
2022/05/14 07:38:03;;;;;;;6.25;2.00;;;18.20;90.70;;;;;;6164914;23;20056;-78
2022/05/14 07:40:33;;;;;;;5.35;1.98;;;18.20;89.50;;;;;;6138083;23;20306;-79
2022/05/14 07:43:16;;;;;;;6.20;2.20;;;18.30;90.00;;;;;;6164774;23;20001;-78
2022/05/14 07:45:45;;;;;;;3.97;1.30;;;18.40;88.40;;;;;;6137669;23;20017;-78
2022/05/14 07:48:20;;;;;;;4.85;1.67;;;18.50;86.90;;;;;;6138746;23;20010;-77
2022/05/14 07:50:46;;;;;;;3.83;1.60;;;18.60;86.10;;;;;;6164181;23;20005;-79
2022/05/14 07:53:14;;;;;;;3.65;1.73;;;18.70;86.30;;;;;;6138542;23;19993;-79
2022/05/14 07:55:42;;;;;;;3.42;1.10;;;18.90;84.10;;;;;;6164487;23;20055;-78
2022/05/14 07:58:08;;;;;;;4.43;1.27;;;18.70;81.90;;;;;;6164399;23;20012;-78
2022/05/14 08:00:34;;;;;;;5.75;1.50;;;18.80;83.30;;;;;;6137298;23;20013;-79
2022/05/14 08:03:01;;;;;;;5.45;1.77;;;19.00;83.70;;;;;;6164174;23;20014;-78
2022/05/14 08:05:28;;;;;;;4.22;1.30;;;19.20;83.20;;;;;;6164685;23;20002;-77
2022/05/14 08:07:54;;;;;;;4.45;1.40;;;19.30;82.40;;;;;;6164189;23;20009;-76
2022/05/14 08:10:20;;;;;;;5.90;1.40;;;19.40;81.50;;;;;;6138260;23;20009;-79
2022/05/14 08:12:50;;;;;;;3.22;1.20;;;19.40;80.60;;;;;;6164057;23;20009;-78
2022/05/14 08:15:16;;;;;;;6.65;1.30;;;19.40;80.20;;;;;;6162470;23;20029;-78
2022/05/14 08:17:43;;;;;;;5.57;1.35;;;19.50;79.40;;;;;;6163591;23;19993;-78
2022/05/14 08:20:10;;;;;;;3.63;1.17;;;19.60;78.70;;;;;;6138710;23;20001;-78
2022/05/14 08:25:20;;;;;;;3.38;0.98;;;19.80;77.60;;;;;;6138107;23;20287;-79
2022/05/14 08:27:47;;;;;;;3.42;0.82;;;19.90;77.10;;;;;;6163461;23;20028;-80
2022/05/14 08:30:14;;;;;;;4.93;1.00;;;20.00;76.20;;;;;;6163623;23;20005;-82
2022/05/14 08:32:40;;;;;;;2.73;1.00;;;20.00;76.10;;;;;;6114057;23;20227;-80
2022/05/14 08:35:07;;;;;;;2.65;0.85;;;20.20;77.00;;;;;;6138775;23;20313;-80
2022/05/14 08:37:36;;;;;;;5.88;1.20;;;20.40;76.10;;;;;;6164278;23;20037;-81
2022/05/14 08:40:10;;;;;;;3.92;1.33;;;20.40;75.30;;;;;;6164554;23;20040;-81
2022/05/14 08:42:38;;;;;;;8.00;1.00;;;20.60;75.40;;;;;;6137652;23;20009;-79
2022/05/14 08:45:05;;;;;;;6.32;2.05;;;20.60;74.20;;;;;;6163670;23;20001;-79
2022/05/14 08:47:40;;;;;;;5.32;1.05;;;20.40;74.00;;;;;;6164170;23;20000;-79
2022/05/14 08:50:08;;;;;;;2.28;0.85;;;20.40;74.50;;;;;;6138707;23;20001;-78
2022/05/14 08:52:35;;;;;;;5.97;1.20;;;20.50;75.20;;;;;;6138090;23;20028;-80
2022/05/14 08:55:08;;;;;;;3.28;1.20;;;20.70;75.20;;;;;;6164556;23;20004;-80
2022/05/14 08:58:06;;;;;;;4.22;1.30;;;20.80;74.40;;;;;;6137930;23;20001;-80
2022/05/14 09:00:36;;;;;;;3.90;1.15;;;20.90;73.90;;;;;;6136662;23;20009;-79
2022/05/14 09:03:03;;;;;;;5.50;1.00;;;20.80;74.10;;;;;;6137776;23;20013;-80
2022/05/14 09:05:34;;;;;;;3.45;1.00;;;20.70;73.70;;;;;;6138555;23;20005;-79
2022/05/14 09:08:01;;;;;;;5.22;1.30;;;20.80;74.50;;;;;;6138764;23;20001;-79
2022/05/14 09:10:32;;;;;;;5.60;1.27;;;20.90;74.20;;;;;;6163944;23;20176;-79
2022/05/14 09:13:17;;;;;;;3.38;1.00;;;21.00;74.40;;;;;;6137737;23;20002;-80
2022/05/14 09:15:52;;;;;;;6.40;1.13;;;21.00;73.70;;;;;;6136718;23;20029;-80
2022/05/14 09:18:23;;;;;;;3.72;1.05;;;21.20;73.80;;;;;;6163974;23;20063;-79
2022/05/14 09:21:01;;;;;;;7.32;1.40;;;21.20;73.30;;;;;;6137692;23;20012;-81
2022/05/14 09:23:40;;;;;;;4.00;1.10;;;21.10;72.80;;;;;;6138146;23;20012;-80
2022/05/14 09:26:20;;;;;;;6.05;1.30;;;21.10;74.20;;;;;;6165463;23;20006;-80
2022/05/14 09:28:49;;;;;;;3.28;1.13;;;21.00;73.50;;;;;;6138032;23;20056;-80
2022/05/14 09:31:34;;;;;;;3.00;1.20;;;21.00;74.00;;;;;;6163969;23;20033;-78
2022/05/14 09:34:10;;;;;;;5.80;1.40;;;21.10;73.50;;;;;;6139182;23;20006;-79
2022/05/14 09:36:36;;;;;;;6.03;1.10;;;21.10;73.40;;;;;;6164249;23;20073;-79
2022/05/14 09:39:07;;;;;;;4.57;1.42;;;21.10;72.40;;;;;;6164895;23;20283;-79
2022/05/14 09:41:45;;;;;;;3.60;1.33;;;21.00;72.70;;;;;;6139171;23;20074;-80
2022/05/14 09:44:21;;;;;;;;;;;21.00;72.60;;;;;;6139493;23;20009;-79
2022/05/14 09:46:48;;;;;;;2.72;1.10;;;21.00;73.20;;;;;;6161655;23;19904;-79
2022/05/14 09:49:32;;;;;;;7.85;1.40;;;21.20;73.80;;;;;;6164143;23;20244;-79
2022/05/14 09:52:07;;;;;;;6.20;1.25;;;21.30;73.20;;;;;;6138968;23;20199;-79
2022/05/14 09:54:41;;;;;;;4.28;1.08;;;21.40;72.70;;;;;;6092034;23;20040;-79
2022/05/14 09:57:21;;;;;;;5.38;1.45;;;21.40;72.50;;;;;;6166665;23;20346;-78
2022/05/14 10:00:03;;;;;;;6.28;1.40;;;21.50;73.10;;;;;;6165674;23;20005;-77
2022/05/14 10:02:59;;;;;;;4.55;1.25;;;21.60;72.10;;;;;;6165125;23;20423;-80
2022/05/14 10:05:28;;;;;;;4.43;1.43;;;21.50;72.00;;;;;;6166256;23;20318;-78
2022/05/14 10:07:56;;;;;;;;;;;21.50;73.00;;;;;;6166430;23;20009;-79
2022/05/14 10:10:49;;;;;;;4.55;1.02;;;21.60;73.20;;;;;;6167415;23;19909;-81
2022/05/14 10:13:27;;;;;;;3.72;1.50;;;21.70;73.00;;;;;;6140510;23;20017;-78
2022/05/14 10:16:05;;;;;;;5.03;1.45;;;21.80;73.30;;;;;;6139035;23;20014;-80
2022/05/14 10:18:31;;;;;;;;;;;21.90;73.10;;;;;;6166382;23;20006;-79
2022/05/14 10:21:30;;;;;;;7.47;1.60;;;22.00;73.10;;;;;;6165021;23;20054;-79
2022/05/14 10:27:27;;;;;;;4.68;0.93;;;22.30;71.20;;;;;;6164453;23;20005;-80
2022/05/14 10:30:02;;;;;;;4.97;1.20;;;22.20;70.90;;;;;;6117579;23;20017;-80
2022/05/14 10:32:31;;;;;;;5.43;1.20;;;22.30;71.40;;;;;;6135593;23;20014;-79
2022/05/14 10:35:18;;;;;;;3.20;1.13;;;22.50;70.30;;;;;;6109602;23;20024;-77
2022/05/14 10:37:59;;;;;;;5.20;1.15;;;22.60;71.20;;;;;;6134634;23;20096;-77
2022/05/14 10:40:28;;;;;;;4.13;1.05;;;22.80;70.10;;;;;;6136052;23;20021;-77
2022/05/14 10:42:54;;;;;;;3.00;0.90;;;22.80;69.30;;;;;;6134947;23;20227;-77
2022/05/14 10:45:30;;;;;;;2.47;0.80;;;23.00;69.00;;;;;;6133466;23;20058;-77
2022/05/14 10:48:11;;;;;;;4.07;0.73;;;23.10;69.60;;;;;;6134930;23;20073;-77
2022/05/14 10:50:39;;;;;;;4.60;0.85;;;23.10;67.60;;;;;;6109510;23;20291;-78
2022/05/14 10:53:08;;;;;;;3.80;1.00;;;23.20;68.40;;;;;;6107812;23;20012;-78
2022/05/14 10:55:56;;;;;;;3.60;0.93;;;23.20;67.60;;;;;;6134219;23;20132;-78
2022/05/14 10:58:36;;;;;;;2.53;0.80;;;23.30;67.40;;;;;;6102823;23;20065;-77
2022/05/14 11:01:10;;;;;;;6.35;0.90;;;23.50;66.90;;;;;;6103929;23;20018;-78
2022/05/14 11:03:40;;;;;;;4.35;0.90;;;23.50;67.10;;;;;;6134484;23;20016;-77
2022/05/14 11:06:11;;;;;;;6.10;1.00;;;23.50;66.90;;;;;;6134954;23;20002;-78
2022/05/14 11:08:45;;;;;;;2.88;0.90;;;23.80;67.30;;;;;;6134456;23;20109;-78
2022/05/14 11:11:18;;;;;;;1.60;0.75;;;23.90;67.00;;;;;;6134395;23;20081;-78
2022/05/14 11:13:59;;;;;;;2.65;1.02;;;23.90;66.90;;;;;;6133333;23;20229;-80
2022/05/14 11:16:44;;;;;;;2.92;0.90;;;24.00;66.50;;;;;;6150269;23;20017;-78
2022/05/14 11:19:23;;;;;;;3.42;1.20;;;24.20;65.80;;;;;;6163725;23;20052;-78
2022/05/14 11:21:49;;;;;;;;;;;24.50;65.20;;;;;;6137959;23;20005;-78
2022/05/14 11:24:16;;;;;;;3.88;0.77;;;24.60;65.30;;;;;;6162418;23;19959;-77
2022/05/14 11:27:00;;;;;;;4.20;0.80;;;25.00;64.50;;;;;;6112440;23;20056;-78
2022/05/14 11:29:29;;;;;;;4.63;1.17;;;25.60;64.00;;;;;;6163227;23;20017;-77
2022/05/14 11:32:06;;;;;;;2.40;0.70;;;26.10;62.90;;;;;;6136307;23;20083;-78
2022/05/14 11:34:33;;;;;;;4.05;0.77;;;27.00;61.10;;;;;;6163762;23;20244;-79
2022/05/14 11:37:01;;;;;;;2.72;0.65;;;27.60;60.30;;;;;;6163000;23;20029;-79
2022/05/14 11:39:32;;;;;;;5.50;1.05;;;28.20;58.70;;;;;;6163354;23;20048;-79
2022/05/14 11:42:30;;;;;;;3.60;0.90;;;29.30;57.50;;;;;;6137108;23;20016;-79
2022/05/14 11:45:03;;;;;;;4.80;0.98;;;29.60;57.20;;;;;;6140370;23;20314;-79
2022/05/14 11:47:32;;;;;;;4.68;1.10;;;30.40;55.60;;;;;;6133703;23;20300;-80
2022/05/14 11:50:00;;;;;;;2.35;0.52;;;31.10;55.10;;;;;;6133223;23;20025;-79
2022/05/14 11:52:39;;;;;;;5.07;0.82;;;32.20;55.30;;;;;;6133664;23;20013;-79
2022/05/14 11:55:09;;;;;;;3.28;1.08;;;33.00;52.90;;;;;;6133456;23;20216;-78
2022/05/14 11:57:45;;;;;;;4.82;0.80;;;33.80;51.80;;;;;;6133787;23;20053;-78
2022/05/14 12:00:17;;;;;;;1.90;0.60;;;34.40;51.10;;;;;;6133237;23;20002;-79
2022/05/14 12:02:56;;;;;;;5.13;0.80;;;34.80;48.80;;;;;;6133752;23;20084;-78
2022/05/14 12:05:49;;;;;;;3.97;0.65;;;34.70;49.70;;;;;;6134457;23;20002;-79
2022/05/14 12:08:49;;;;;;;2.08;0.68;;;35.80;48.90;;;;;;6133912;23;20002;-79
2022/05/14 12:11:47;;;;;;;2.22;0.60;;;36.20;48.20;;;;;;6107987;23;20236;-79
2022/05/14 12:14:17;;;;;;;2.17;0.80;;;36.50;47.80;;;;;;6133852;23;20109;-76
2022/05/14 12:16:51;;;;;;;2.22;0.70;;;36.30;46.80;;;;;;6132940;23;20025;-77
2022/05/14 12:19:21;;;;;;;3.97;0.70;;;36.80;47.00;;;;;;6084214;23;20045;-78
2022/05/14 12:21:54;;;;;;;3.55;0.70;;;36.70;46.20;;;;;;6133196;23;20079;-77
2022/05/14 12:24:40;;;;;;;2.72;0.57;;;36.60;46.70;;;;;;6133692;23;20054;-78
2022/05/14 12:27:16;;;;;;;3.17;0.68;;;37.20;45.60;;;;;;6132790;23;20029;-78
2022/05/14 12:30:02;;;;;;;2.88;1.23;;;37.10;45.80;;;;;;6133372;23;20094;-77
2022/05/14 12:35:23;;;;;;;3.28;0.60;;;37.70;46.30;;;;;;6163457;23;20048;-77
2022/05/14 12:37:55;;;;;;;2.08;0.60;;;38.40;45.20;;;;;;6162981;23;20001;-78
2022/05/14 12:40:30;;;;;;;3.90;0.60;;;38.40;44.40;;;;;;6163137;23;20065;-77
2022/05/14 12:42:57;;;;;;;2.28;0.60;;;39.00;44.00;;;;;;6162852;23;20219;-77
2022/05/14 12:45:41;;;;;;;4.83;0.40;;;39.40;44.20;;;;;;6162267;23;20041;-78
2022/05/14 12:48:10;;;;;;;3.25;0.70;;;39.90;43.70;;;;;;6163270;23;20067;-78
2022/05/14 12:50:36;;;;;;;3.13;0.60;;;40.00;43.50;;;;;;6163876;23;20013;-76
2022/05/14 12:53:11;;;;;;;3.58;0.70;;;40.20;43.30;;;;;;6163877;23;20275;-78
2022/05/14 12:55:49;;;;;;;2.17;0.52;;;40.40;42.90;;;;;;6164111;23;20302;-77
2022/05/14 12:58:17;;;;;;;2.20;0.55;;;40.20;43.10;;;;;;6164397;23;20001;-79
2022/05/14 13:00:49;;;;;;;3.08;0.80;;;41.00;43.30;;;;;;6137677;23;20010;-77
2022/05/14 13:03:28;;;;;;;2.22;0.65;;;41.60;42.30;;;;;;6138175;23;20009;-78
2022/05/14 13:06:02;;;;;;;1.30;0.40;;;41.80;42.10;;;;;;6163613;23;20001;-77
2022/05/14 13:08:28;;;;;;;3.25;0.90;;;41.50;41.60;;;;;;6163471;23;20001;-77
2022/05/14 13:11:04;;;;;;;2.22;0.60;;;41.20;41.10;;;;;;6136856;23;20069;-79
2022/05/14 13:13:38;;;;;;;3.63;0.90;;;41.10;41.80;;;;;;6137892;23;20012;-77
2022/05/14 13:16:17;;;;;;;3.15;0.85;;;41.80;41.20;;;;;;6112230;23;20066;-76
2022/05/14 13:18:49;;;;;;;4.90;0.93;;;42.00;41.60;;;;;;6137597;23;20113;-76
2022/05/14 13:21:45;;;;;;;2.72;0.80;;;41.90;41.80;;;;;;6162350;23;20005;-78
2022/05/14 13:24:31;;;;;;;3.13;0.90;;;42.30;40.60;;;;;;6136850;23;20025;-78
2022/05/14 13:26:59;;;;;;;3.13;0.80;;;42.80;40.50;;;;;;6162767;23;20029;-76
2022/05/14 13:29:34;;;;;;;3.63;0.85;;;43.80;40.60;;;;;;6163600;23;20005;-76
2022/05/14 13:32:19;;;;;;;2.63;0.77;;;44.10;40.20;;;;;;6161942;23;20068;-79
2022/05/14 13:37:52;;;;;;;5.38;0.98;;;43.60;39.90;;;;;;6163282;23;20005;-78
2022/05/14 13:40:25;;;;;;;4.75;0.75;;;44.30;39.40;;;;;;6137881;23;20009;-79
2022/05/14 13:43:04;;;;;;;2.75;0.65;;;44.50;39.20;;;;;;6161410;23;20002;-77
2022/05/14 13:45:58;;;;;;;1.40;0.40;;;44.70;38.70;;;;;;6130518;23;20295;-78
2022/05/14 13:48:38;;;;;;;1.65;0.63;;;44.40;39.30;;;;;;6124527;23;20339;-78
2022/05/14 13:51:17;;;;;;;3.15;0.77;;;44.80;38.90;;;;;;6133363;23;20089;-77
2022/05/14 13:53:52;;;;;;;3.03;0.98;;;44.40;38.50;;;;;;6084697;23;20010;-77
2022/05/14 13:56:20;;;;;;;3.83;0.80;;;44.40;38.80;;;;;;6108232;23;20045;-77
2022/05/14 13:59:04;;;;;;;4.70;0.70;;;44.50;38.90;;;;;;6133707;23;20022;-78
2022/05/14 14:01:33;;;;;;;3.25;0.52;;;44.90;37.90;;;;;;6132628;23;20037;-78
2022/05/14 14:03:59;;;;;;;3.75;0.70;;;44.90;37.90;;;;;;6132609;23;20009;-78
2022/05/14 14:06:32;;;;;;;2.80;0.63;;;45.40;38.30;;;;;;6107704;23;20268;-78
2022/05/14 14:08:58;;;;;;;2.10;0.50;;;45.00;37.80;;;;;;6107001;23;20343;-78
2022/05/14 14:11:25;;;;;;;2.67;0.60;;;45.00;37.70;;;;;;6133234;23;20006;-77
2022/05/14 14:13:52;;;;;;;3.10;0.70;;;44.90;38.30;;;;;;6133427;23;20050;-78
2022/05/14 14:16:18;;;;;;;2.92;0.50;;;45.20;38.20;;;;;;6133090;23;20018;-78
2022/05/14 14:18:45;;;;;;;4.53;0.70;;;45.50;37.60;;;;;;6133561;23;20010;-78
2022/05/14 14:21:12;;;;;;;1.70;0.60;;;45.30;37.30;;;;;;6132853;23;20000;-78
2022/05/14 14:23:41;;;;;;;3.65;0.82;;;45.10;37.70;;;;;;6133985;23;20002;-78
2022/05/14 14:26:07;;;;;;;2.95;0.63;;;45.70;37.90;;;;;;6107396;23;20006;-78
2022/05/14 14:28:35;;;;;;;3.47;0.60;;;46.90;37.30;;;;;;6108302;23;20000;-78
2022/05/14 14:31:03;;;;;;;2.70;0.50;;;46.70;36.90;;;;;;6144368;23;20086;-80
2022/05/14 14:33:30;;;;;;;2.55;0.70;;;46.10;37.10;;;;;;6163361;23;20097;-78
2022/05/14 14:35:57;;;;;;;2.20;0.70;;;45.60;37.30;;;;;;6162370;23;20055;-78
2022/05/14 14:38:23;;;;;;;3.47;0.60;;;45.50;37.30;;;;;;6163104;23;20061;-77
2022/05/14 14:40:49;;;;;;;2.47;0.55;;;45.80;37.40;;;;;;6137746;23;20001;-78
2022/05/14 14:43:16;;;;;;;3.65;0.52;;;45.90;37.40;;;;;;6164230;23;20009;-80
2022/05/14 14:45:44;;;;;;;1.75;0.52;;;46.40;36.60;;;;;;6138359;23;20001;-78
2022/05/14 14:48:12;;;;;;;3.47;0.50;;;46.80;36.50;;;;;;6138208;23;20005;-78
2022/05/14 14:50:38;;;;;;;2.45;0.65;;;46.50;37.10;;;;;;6138483;23;20010;-77
2022/05/14 14:53:04;;;;;;;2.88;0.60;;;44.70;36.10;;;;;;6138024;23;20048;-77
2022/05/14 14:55:30;;;;;;;3.60;0.80;;;45.40;37.20;;;;;;6114720;23;20219;-78
2022/05/14 14:57:56;;;;;;;2.93;0.53;;;46.10;37.10;;;;;;6164277;23;20028;-78
2022/05/14 15:00:25;;;;;;;4.47;0.60;;;46.40;36.30;;;;;;6164215;23;20212;-78
2022/05/14 15:03:18;;;;;;;2.28;0.50;;;46.10;36.30;;;;;;6164720;23;20014;-79
2022/05/14 15:05:46;;;;;;;2.50;0.80;;;46.00;36.70;;;;;;6165040;23;20001;-78
2022/05/14 15:08:16;;;;;;;2.78;0.70;;;45.30;36.00;;;;;;6138360;23;20035;-78
2022/05/14 15:10:42;;;;;;;2.10;0.70;;;45.50;36.60;;;;;;6164631;23;20016;-78
2022/05/14 15:13:14;;;;;;;3.42;0.60;;;46.00;36.40;;;;;;6138004;23;20061;-79
2022/05/14 15:15:40;;;;;;;2.25;0.57;;;46.10;36.10;;;;;;6163851;23;20318;-77
2022/05/14 15:18:07;;;;;;;2.78;0.80;;;47.10;35.80;;;;;;6137845;23;20005;-78
2022/05/14 15:20:39;;;;;;;2.65;0.70;;;47.30;35.70;;;;;;6113792;23;20053;-79
2022/05/14 15:23:06;;;;;;;2.33;0.60;;;46.70;35.60;;;;;;6163769;23;20287;-78
2022/05/14 15:25:38;;;;;;;2.75;0.65;;;46.60;35.90;;;;;;6138694;23;20300;-77
2022/05/14 15:28:08;;;;;;;2.17;0.50;;;46.60;35.80;;;;;;6164304;23;20025;-78
2022/05/14 15:30:34;;;;;;;2.47;0.70;;;47.20;35.50;;;;;;6163573;23;20020;-78
2022/05/14 15:33:00;;;;;;;3.55;0.68;;;46.40;35.60;;;;;;6113327;23;20005;-78
2022/05/14 15:35:32;;;;;;;1.92;0.57;;;46.40;35.80;;;;;;6114336;23;20014;-78
2022/05/14 15:37:59;;;;;;;2.20;0.50;;;45.90;35.50;;;;;;6163492;23;20047;-79
2022/05/14 15:40:29;;;;;;;1.52;0.63;;;46.40;36.00;;;;;;6138607;23;20036;-79
2022/05/14 15:42:58;;;;;;;2.85;0.47;;;46.50;35.80;;;;;;6137843;23;20244;-79
2022/05/14 15:45:34;;;;;;;3.22;0.80;;;46.30;35.60;;;;;;6163865;23;20013;-78
2022/05/14 15:48:06;;;;;;;1.73;0.50;;;47.10;35.80;;;;;;6137424;23;20016;-79
2022/05/14 15:50:35;;;;;;;1.40;0.52;;;46.20;35.30;;;;;;6138377;23;20002;-78
2022/05/14 15:53:12;;;;;;;2.03;0.57;;;45.80;35.80;;;;;;6163363;23;20013;-77
2022/05/14 15:55:42;;;;;;;2.30;0.70;;;44.90;36.00;;;;;;6164277;23;20256;-79
2022/05/14 15:58:08;;;;;;;3.05;0.68;;;45.50;35.50;;;;;;6137272;23;20052;-79
2022/05/14 16:00:34;;;;;;;2.80;0.60;;;45.40;35.60;;;;;;6163524;23;20037;-78
2022/05/14 16:03:00;;;;;;;3.60;0.90;;;45.50;36.50;;;;;;6163267;23;20017;-78
2022/05/14 16:05:26;;;;;;;3.03;0.80;;;45.60;35.70;;;;;;6164308;23;20069;-77
2022/05/14 16:07:52;;;;;;;6.30;0.70;;;45.70;35.70;;;;;;6164255;23;20005;-77
2022/05/14 16:15:53;;;;;;;3.25;1.00;;;43.60;35.60;;;;;;6163202;23;20013;-78
2022/05/14 16:18:20;;;;;;;3.28;0.70;;;42.40;36.50;;;;;;6137359;23;20428;-80
2022/05/14 16:20:46;;;;;;;2.20;0.75;;;41.70;36.40;;;;;;6163915;23;20321;-78
2022/05/14 16:23:12;;;;;;;3.47;1.00;;;41.40;36.80;;;;;;6162819;23;20044;-79
2022/05/14 16:25:37;;;;;;;4.35;1.13;;;40.30;37.70;;;;;;6137945;23;20219;-78
2022/05/14 16:28:04;;;;;;;2.90;1.58;;;40.50;38.70;;;;;;6163648;23;20132;-79
2022/05/14 16:30:30;;;;;;;3.87;1.07;;;41.30;37.70;;;;;;6163355;23;20017;-78
2022/05/14 16:32:56;;;;;;;2.40;0.70;;;40.60;37.70;;;;;;6164039;23;20016;-78
2022/05/14 16:35:24;;;;;;;3.80;0.70;;;40.20;37.90;;;;;;6162574;23;20001;-77
2022/05/14 16:37:50;;;;;;;1.90;0.80;;;39.40;38.20;;;;;;6163471;23;20009;-79
2022/05/14 16:40:16;;;;;;;2.50;0.80;;;38.80;38.40;;;;;;6163147;23;20005;-79
2022/05/14 16:42:42;;;;;;;2.33;0.70;;;37.50;39.10;;;;;;6137718;23;20315;-78
2022/05/14 16:45:08;;;;;;;2.47;0.90;;;36.10;40.10;;;;;;6136158;23;20008;-78
2022/05/14 16:47:36;;;;;;;5.68;1.05;;;34.80;40.90;;;;;;6163689;23;20002;-78
2022/05/14 16:50:04;;;;;;;2.83;1.00;;;33.70;41.80;;;;;;6137156;23;20191;-79
2022/05/14 16:52:31;;;;;;;;;;;33.20;42.80;;;;;;6113647;23;19997;-78
2022/05/14 16:54:58;;;;;;;3.78;1.00;;;32.80;42.80;;;;;;6137990;23;19970;-78
2022/05/14 16:57:24;;;;;;;3.95;0.85;;;32.20;43.20;;;;;;6136600;23;20001;-79
2022/05/14 16:59:50;;;;;;;2.90;0.80;;;31.50;43.80;;;;;;6137588;23;20068;-79
2022/05/14 17:02:16;;;;;;;3.05;0.80;;;31.10;44.10;;;;;;6111421;23;20025;-80
2022/05/14 17:04:43;;;;;;;3.08;0.70;;;30.20;44.60;;;;;;6163001;23;20056;-79
2022/05/14 17:07:10;;;;;;;2.80;0.52;;;29.60;45.20;;;;;;6112639;23;20338;-78
2022/05/14 17:09:37;;;;;;;3.15;0.70;;;29.20;45.30;;;;;;6137984;23;20013;-79
2022/05/14 17:12:04;;;;;;;4.70;0.70;;;29.20;45.20;;;;;;6137002;23;20010;-80
2022/05/14 17:14:29;;;;;;;2.83;0.70;;;29.00;45.30;;;;;;6137941;23;20045;-79
2022/05/14 17:16:55;;;;;;;2.90;0.80;;;29.00;45.40;;;;;;6137371;23;20056;-79
2022/05/14 17:19:21;;;;;;;3.17;0.90;;;29.40;46.00;;;;;;6112278;23;20056;-78
2022/05/14 17:21:47;;;;;;;4.75;0.80;;;29.70;45.30;;;;;;6136233;23;19997;-78
2022/05/14 17:24:13;;;;;;;1.77;0.65;;;30.50;44.40;;;;;;6160351;23;20001;-80
2022/05/14 17:26:40;;;;;;;3.92;0.90;;;31.00;43.70;;;;;;6135731;23;20028;-79
2022/05/14 17:29:07;;;;;;;3.65;0.75;;;31.90;43.00;;;;;;6134998;23;20064;-78
2022/05/14 17:31:34;;;;;;;3.13;0.70;;;32.40;42.30;;;;;;6111263;23;20021;-79
2022/05/14 17:34:01;;;;;;;3.55;0.82;;;32.90;41.80;;;;;;6161968;23;20005;-79
2022/05/14 17:36:28;;;;;;;2.97;0.80;;;33.80;41.40;;;;;;6161483;23;20191;-79
2022/05/14 17:41:40;;;;;;;3.95;1.08;;;35.10;40.70;;;;;;6136015;23;20010;-78
2022/05/14 17:44:06;;;;;;;3.35;1.00;;;35.00;40.30;;;;;;6161590;23;19990;-79
2022/05/14 17:46:32;;;;;;;4.65;1.10;;;35.10;40.00;;;;;;6135134;23;20105;-79
2022/05/14 17:48:59;;;;;;;4.10;1.30;;;34.60;40.00;;;;;;6162746;23;20002;-79
2022/05/14 17:51:25;;;;;;;3.13;0.93;;;34.30;40.40;;;;;;6161384;23;20362;-78
2022/05/14 17:53:54;;;;;;;5.28;1.38;;;33.50;41.00;;;;;;6162050;23;20076;-78
2022/05/14 17:56:20;;;;;;;3.58;0.90;;;33.50;41.90;;;;;;6161868;23;20028;-78
2022/05/14 17:58:46;;;;;;;4.53;1.15;;;32.90;40.70;;;;;;6135835;23;20153;-79
2022/05/14 18:01:12;;;;;;;2.15;0.63;;;32.20;41.50;;;;;;6161016;23;20006;-78
2022/05/14 18:03:38;;;;;;;3.35;0.82;;;31.30;41.80;;;;;;6135974;23;20017;-80
2022/05/14 18:06:05;;;;;;;5.13;1.00;;;30.30;42.50;;;;;;6135997;23;20005;-77
2022/05/14 18:08:32;;;;;;;3.13;1.23;;;29.50;43.40;;;;;;6135974;23;20018;-78
2022/05/14 18:13:42;;;;;;;2.22;0.82;;;28.20;46.30;;;;;;6135995;23;20012;-78
2022/05/14 18:16:09;;;;;;;3.60;1.33;;;27.80;46.90;;;;;;6161596;23;20339;-79
2022/05/14 18:18:35;;;;;;;2.42;0.75;;;27.50;46.90;;;;;;6138059;23;20005;-80
2022/05/14 18:21:01;;;;;;;2.58;0.93;;;27.20;47.00;;;;;;6137954;23;20068;-80
2022/05/14 18:23:27;;;;;;;2.47;0.90;;;27.00;48.00;;;;;;6137343;23;19997;-81
2022/05/14 18:26:02;;;;;;;4.20;1.90;;;26.70;48.30;;;;;;6113877;23;20005;-79
2022/05/14 18:28:32;;;;;;;3.38;1.58;;;26.30;47.80;;;;;;6138414;23;20001;-80
2022/05/14 18:31:01;;;;;;;2.75;1.50;;;25.90;48.60;;;;;;6164146;23;20061;-80
2022/05/14 18:33:34;;;;;;;5.47;2.03;;;25.80;49.40;;;;;;6138663;23;20387;-81
2022/05/14 18:36:02;;;;;;;4.72;1.60;;;25.60;49.60;;;;;;6137214;23;20009;-79
2022/05/14 18:38:40;;;;;;;5.60;2.45;;;25.40;49.30;;;;;;6111624;23;20057;-80
2022/05/14 18:41:08;;;;;;;5.07;3.00;;;25.30;50.40;;;;;;6129756;23;20014;-78
2022/05/14 18:43:36;;;;;;;7.65;3.97;;;25.10;50.60;;;;;;6134504;23;20279;-78